<?xml version="1.0" encoding="UTF-8" standalone="no" ?>
<gpx xmlns="http://www.topografix.com/GPX/1/1" xmlns:xsi="http://www.w3.org/2001/XMLSchema-instance" xsi:schemaLocation="http://www.topografix.com/GPX/1/1 http://www.topografix.com/GPX/1/1/gpx.xsd" version="1.1" creator="VisuGPX - https://www.visugpx.com">
  <metadata>
    <name>L'Étang d'Embizon</name>
  </metadata>
  <wpt lat="42.70802" lon="1.80566">
    <ele>1094</ele>
    <name><![CDATA[Vallée du Najar, fin de voie goudronnée]]></name>
  </wpt>
  <wpt lat="42.69453" lon="1.78555">
    <ele>1269</ele>
    <name><![CDATA[Passe des Esquers de Dessous]]></name>
  </wpt>
  <wpt lat="42.68505" lon="1.78187">
    <ele>1343</ele>
    <name><![CDATA[Passe des Esquers de Dessus]]></name>
  </wpt>
  <wpt lat="42.67655" lon="1.77674">
    <ele>1415</ele>
    <name><![CDATA[Bifurcation, à droite]]></name>
  </wpt>
  <wpt lat="42.67659" lon="1.76965">
    <ele>1551</ele>
    <name><![CDATA[Traversée du Ruisseau des Pradels]]></name>
  </wpt>
  <wpt lat="42.67687" lon="1.76636">
    <ele>1620</ele>
    <name><![CDATA[Sentier plus net]]></name>
  </wpt>
  <wpt lat="42.67225" lon="1.76271">
    <ele>1741</ele>
    <name><![CDATA[Sentier cairné]]></name>
  </wpt>
  <wpt lat="42.66743" lon="1.75696">
    <ele>1923</ele>
    <name><![CDATA[Partie herbeuse]]></name>
  </wpt>
  <wpt lat="42.66445" lon="1.75364">
    <ele>2000</ele>
    <name><![CDATA[Cirque rocheux, fond de vallée]]></name>
  </wpt>
  <wpt lat="42.66519" lon="1.7508">
    <ele>2092</ele>
    <name><![CDATA[Replat, laquet]]></name>
  </wpt>
  <wpt lat="42.66751" lon="1.75027">
    <ele>2100</ele>
    <name><![CDATA[Etang d'Embizon]]></name>
  </wpt>
  <wpt lat="42.70802" lon="1.80566">
    <ele>1094</ele>
    <name><![CDATA[Vallée du Najar, fin de voie goudronnée]]></name>
  </wpt>
  <trk>
    <name><![CDATA[L'Étang d'Embizon]]></name>
    <trkseg>
      <trkpt lat="42.70802" lon="1.80566">
        <ele>1094</ele>
        <time>2020-07-04T21:23:24+02:00</time>
      </trkpt>
      <trkpt lat="42.70766" lon="1.80459">
        <ele>1092</ele>
        <time>2020-07-04T21:23:29+02:00</time>
      </trkpt>
      <trkpt lat="42.70749" lon="1.80403">
        <ele>1091</ele>
        <time>2020-07-04T21:23:34+02:00</time>
      </trkpt>
      <trkpt lat="42.70754" lon="1.80351">
        <ele>1093</ele>
        <time>2020-07-04T21:23:39+02:00</time>
      </trkpt>
      <trkpt lat="42.70744" lon="1.80308">
        <ele>1094</ele>
        <time>2020-07-04T21:23:44+02:00</time>
      </trkpt>
      <trkpt lat="42.70746" lon="1.80276">
        <ele>1094</ele>
        <time>2020-07-04T21:23:49+02:00</time>
      </trkpt>
      <trkpt lat="42.70742" lon="1.80171">
        <ele>1099</ele>
        <time>2020-07-04T21:23:54+02:00</time>
      </trkpt>
      <trkpt lat="42.70741" lon="1.80092">
        <ele>1099</ele>
        <time>2020-07-04T21:23:59+02:00</time>
      </trkpt>
      <trkpt lat="42.70758" lon="1.79959">
        <ele>1108</ele>
        <time>2020-07-04T21:24:04+02:00</time>
      </trkpt>
      <trkpt lat="42.70761" lon="1.79924">
        <ele>1110</ele>
        <time>2020-07-04T21:24:09+02:00</time>
      </trkpt>
      <trkpt lat="42.70776" lon="1.79864">
        <ele>1113</ele>
        <time>2020-07-04T21:24:14+02:00</time>
      </trkpt>
      <trkpt lat="42.7078" lon="1.79819">
        <ele>1115</ele>
        <time>2020-07-04T21:24:19+02:00</time>
      </trkpt>
      <trkpt lat="42.70768" lon="1.79759">
        <ele>1116</ele>
        <time>2020-07-04T21:24:24+02:00</time>
      </trkpt>
      <trkpt lat="42.70798" lon="1.7969">
        <ele>1124</ele>
        <time>2020-07-04T21:24:29+02:00</time>
      </trkpt>
      <trkpt lat="42.70812" lon="1.79572">
        <ele>1132</ele>
        <time>2020-07-04T21:24:34+02:00</time>
      </trkpt>
      <trkpt lat="42.70806" lon="1.79527">
        <ele>1133</ele>
        <time>2020-07-04T21:24:39+02:00</time>
      </trkpt>
      <trkpt lat="42.70818" lon="1.79409">
        <ele>1141</ele>
        <time>2020-07-04T21:24:44+02:00</time>
      </trkpt>
      <trkpt lat="42.70796" lon="1.7936">
        <ele>1143</ele>
        <time>2020-07-04T21:24:49+02:00</time>
      </trkpt>
      <trkpt lat="42.70768" lon="1.79298">
        <ele>1147</ele>
        <time>2020-07-04T21:24:54+02:00</time>
      </trkpt>
      <trkpt lat="42.70744" lon="1.79266">
        <ele>1147</ele>
        <time>2020-07-04T21:24:59+02:00</time>
      </trkpt>
      <trkpt lat="42.70731" lon="1.79217">
        <ele>1154</ele>
        <time>2020-07-04T21:25:04+02:00</time>
      </trkpt>
      <trkpt lat="42.7072" lon="1.79184">
        <ele>1158</ele>
        <time>2020-07-04T21:25:09+02:00</time>
      </trkpt>
      <trkpt lat="42.70717" lon="1.7917">
        <ele>1159</ele>
        <time>2020-07-04T21:25:14+02:00</time>
      </trkpt>
      <trkpt lat="42.70697" lon="1.79122">
        <ele>1162</ele>
        <time>2020-07-04T21:25:19+02:00</time>
      </trkpt>
      <trkpt lat="42.70675" lon="1.79093">
        <ele>1160</ele>
        <time>2020-07-04T21:25:24+02:00</time>
      </trkpt>
      <trkpt lat="42.70656" lon="1.7907">
        <ele>1161</ele>
        <time>2020-07-04T21:25:29+02:00</time>
      </trkpt>
      <trkpt lat="42.70647" lon="1.79043">
        <ele>1165</ele>
        <time>2020-07-04T21:25:34+02:00</time>
      </trkpt>
      <trkpt lat="42.70622" lon="1.79033">
        <ele>1165</ele>
        <time>2020-07-04T21:25:39+02:00</time>
      </trkpt>
      <trkpt lat="42.70597" lon="1.79023">
        <ele>1165</ele>
        <time>2020-07-04T21:25:44+02:00</time>
      </trkpt>
      <trkpt lat="42.7059" lon="1.79017">
        <ele>1165</ele>
        <time>2020-07-04T21:25:49+02:00</time>
      </trkpt>
      <trkpt lat="42.70567" lon="1.79006">
        <ele>1166</ele>
        <time>2020-07-04T21:25:54+02:00</time>
      </trkpt>
      <trkpt lat="42.70537" lon="1.78976">
        <ele>1173</ele>
        <time>2020-07-04T21:25:59+02:00</time>
      </trkpt>
      <trkpt lat="42.70519" lon="1.78972">
        <ele>1174</ele>
        <time>2020-07-04T21:26:04+02:00</time>
      </trkpt>
      <trkpt lat="42.70503" lon="1.78971">
        <ele>1174</ele>
        <time>2020-07-04T21:26:09+02:00</time>
      </trkpt>
      <trkpt lat="42.70462" lon="1.7895">
        <ele>1180</ele>
        <time>2020-07-04T21:26:14+02:00</time>
      </trkpt>
      <trkpt lat="42.70444" lon="1.78938">
        <ele>1183</ele>
        <time>2020-07-04T21:26:19+02:00</time>
      </trkpt>
      <trkpt lat="42.70432" lon="1.78925">
        <ele>1185</ele>
        <time>2020-07-04T21:26:24+02:00</time>
      </trkpt>
      <trkpt lat="42.70403" lon="1.78914">
        <ele>1188</ele>
        <time>2020-07-04T21:26:29+02:00</time>
      </trkpt>
      <trkpt lat="42.70385" lon="1.78914">
        <ele>1189</ele>
        <time>2020-07-04T21:26:34+02:00</time>
      </trkpt>
      <trkpt lat="42.70377" lon="1.78906">
        <ele>1193</ele>
        <time>2020-07-04T21:26:39+02:00</time>
      </trkpt>
      <trkpt lat="42.70356" lon="1.78907">
        <ele>1194</ele>
        <time>2020-07-04T21:26:44+02:00</time>
      </trkpt>
      <trkpt lat="42.7034" lon="1.78913">
        <ele>1193</ele>
        <time>2020-07-04T21:26:49+02:00</time>
      </trkpt>
      <trkpt lat="42.70325" lon="1.78918">
        <ele>1192</ele>
        <time>2020-07-04T21:26:54+02:00</time>
      </trkpt>
      <trkpt lat="42.70297" lon="1.78919">
        <ele>1193</ele>
        <time>2020-07-04T21:26:59+02:00</time>
      </trkpt>
      <trkpt lat="42.70284" lon="1.78913">
        <ele>1194</ele>
        <time>2020-07-04T21:27:04+02:00</time>
      </trkpt>
      <trkpt lat="42.70257" lon="1.78907">
        <ele>1196</ele>
        <time>2020-07-04T21:27:09+02:00</time>
      </trkpt>
      <trkpt lat="42.70242" lon="1.7891">
        <ele>1196</ele>
        <time>2020-07-04T21:27:14+02:00</time>
      </trkpt>
      <trkpt lat="42.70224" lon="1.78901">
        <ele>1200</ele>
        <time>2020-07-04T21:27:19+02:00</time>
      </trkpt>
      <trkpt lat="42.70195" lon="1.78906">
        <ele>1201</ele>
        <time>2020-07-04T21:27:24+02:00</time>
      </trkpt>
      <trkpt lat="42.70176" lon="1.78905">
        <ele>1203</ele>
        <time>2020-07-04T21:27:29+02:00</time>
      </trkpt>
      <trkpt lat="42.70165" lon="1.78894">
        <ele>1207</ele>
        <time>2020-07-04T21:27:34+02:00</time>
      </trkpt>
      <trkpt lat="42.70113" lon="1.78873">
        <ele>1214</ele>
        <time>2020-07-04T21:27:39+02:00</time>
      </trkpt>
      <trkpt lat="42.70102" lon="1.7886">
        <ele>1217</ele>
        <time>2020-07-04T21:27:44+02:00</time>
      </trkpt>
      <trkpt lat="42.70064" lon="1.78855">
        <ele>1220</ele>
        <time>2020-07-04T21:27:49+02:00</time>
      </trkpt>
      <trkpt lat="42.70035" lon="1.7883">
        <ele>1227</ele>
        <time>2020-07-04T21:27:54+02:00</time>
      </trkpt>
      <trkpt lat="42.70016" lon="1.78817">
        <ele>1234</ele>
        <time>2020-07-04T21:27:59+02:00</time>
      </trkpt>
      <trkpt lat="42.69995" lon="1.78824">
        <ele>1233</ele>
        <time>2020-07-04T21:28:04+02:00</time>
      </trkpt>
      <trkpt lat="42.69971" lon="1.78803">
        <ele>1242</ele>
        <time>2020-07-04T21:28:09+02:00</time>
      </trkpt>
      <trkpt lat="42.69948" lon="1.78813">
        <ele>1241</ele>
        <time>2020-07-04T21:28:14+02:00</time>
      </trkpt>
      <trkpt lat="42.69934" lon="1.78804">
        <ele>1244</ele>
        <time>2020-07-04T21:28:19+02:00</time>
      </trkpt>
      <trkpt lat="42.69915" lon="1.7881">
        <ele>1244</ele>
        <time>2020-07-04T21:28:24+02:00</time>
      </trkpt>
      <trkpt lat="42.69907" lon="1.78802">
        <ele>1246</ele>
        <time>2020-07-04T21:28:29+02:00</time>
      </trkpt>
      <trkpt lat="42.69874" lon="1.78795">
        <ele>1248</ele>
        <time>2020-07-04T21:28:34+02:00</time>
      </trkpt>
      <trkpt lat="42.69856" lon="1.78799">
        <ele>1248</ele>
        <time>2020-07-04T21:28:39+02:00</time>
      </trkpt>
      <trkpt lat="42.6984" lon="1.78788">
        <ele>1250</ele>
        <time>2020-07-04T21:28:44+02:00</time>
      </trkpt>
      <trkpt lat="42.69788" lon="1.7878">
        <ele>1252</ele>
        <time>2020-07-04T21:28:49+02:00</time>
      </trkpt>
      <trkpt lat="42.69766" lon="1.78765">
        <ele>1253</ele>
        <time>2020-07-04T21:28:54+02:00</time>
      </trkpt>
      <trkpt lat="42.69758" lon="1.78752">
        <ele>1254</ele>
        <time>2020-07-04T21:28:59+02:00</time>
      </trkpt>
      <trkpt lat="42.69748" lon="1.78737">
        <ele>1260</ele>
        <time>2020-07-04T21:29:04+02:00</time>
      </trkpt>
      <trkpt lat="42.69735" lon="1.78722">
        <ele>1266</ele>
        <time>2020-07-04T21:29:09+02:00</time>
      </trkpt>
      <trkpt lat="42.69721" lon="1.78726">
        <ele>1263</ele>
        <time>2020-07-04T21:29:14+02:00</time>
      </trkpt>
      <trkpt lat="42.69664" lon="1.78686">
        <ele>1265</ele>
        <time>2020-07-04T21:29:19+02:00</time>
      </trkpt>
      <trkpt lat="42.6962" lon="1.78671">
        <ele>1262</ele>
        <time>2020-07-04T21:29:24+02:00</time>
      </trkpt>
      <trkpt lat="42.69601" lon="1.78648">
        <ele>1267</ele>
        <time>2020-07-04T21:29:29+02:00</time>
      </trkpt>
      <trkpt lat="42.69581" lon="1.78648">
        <ele>1263</ele>
        <time>2020-07-04T21:29:34+02:00</time>
      </trkpt>
      <trkpt lat="42.69537" lon="1.7864">
        <ele>1264</ele>
        <time>2020-07-04T21:29:39+02:00</time>
      </trkpt>
      <trkpt lat="42.69512" lon="1.78612">
        <ele>1267</ele>
        <time>2020-07-04T21:29:44+02:00</time>
      </trkpt>
      <trkpt lat="42.69507" lon="1.78598">
        <ele>1267</ele>
        <time>2020-07-04T21:29:49+02:00</time>
      </trkpt>
      <trkpt lat="42.69482" lon="1.78583">
        <ele>1266</ele>
        <time>2020-07-04T21:29:54+02:00</time>
      </trkpt>
      <trkpt lat="42.69453" lon="1.78555">
        <ele>1269</ele>
        <time>2020-07-04T21:29:59+02:00</time>
      </trkpt>
      <trkpt lat="42.69419" lon="1.78533">
        <ele>1268</ele>
        <time>2020-07-04T21:30:04+02:00</time>
      </trkpt>
      <trkpt lat="42.69368" lon="1.78497">
        <ele>1270</ele>
        <time>2020-07-04T21:30:09+02:00</time>
      </trkpt>
      <trkpt lat="42.6935" lon="1.7849">
        <ele>1270</ele>
        <time>2020-07-04T21:30:14+02:00</time>
      </trkpt>
      <trkpt lat="42.69315" lon="1.78461">
        <ele>1273</ele>
        <time>2020-07-04T21:30:19+02:00</time>
      </trkpt>
      <trkpt lat="42.69283" lon="1.78444">
        <ele>1272</ele>
        <time>2020-07-04T21:30:24+02:00</time>
      </trkpt>
      <trkpt lat="42.69266" lon="1.78408">
        <ele>1273</ele>
        <time>2020-07-04T21:30:29+02:00</time>
      </trkpt>
      <trkpt lat="42.69237" lon="1.78395">
        <ele>1273</ele>
        <time>2020-07-04T21:30:34+02:00</time>
      </trkpt>
      <trkpt lat="42.69203" lon="1.78346">
        <ele>1278</ele>
        <time>2020-07-04T21:30:39+02:00</time>
      </trkpt>
      <trkpt lat="42.69192" lon="1.78336">
        <ele>1278</ele>
        <time>2020-07-04T21:30:44+02:00</time>
      </trkpt>
      <trkpt lat="42.69158" lon="1.7833">
        <ele>1275</ele>
        <time>2020-07-04T21:30:49+02:00</time>
      </trkpt>
      <trkpt lat="42.69151" lon="1.78327">
        <ele>1275</ele>
        <time>2020-07-04T21:30:54+02:00</time>
      </trkpt>
      <trkpt lat="42.69089" lon="1.78277">
        <ele>1280</ele>
        <time>2020-07-04T21:30:59+02:00</time>
      </trkpt>
      <trkpt lat="42.69038" lon="1.78242">
        <ele>1285</ele>
        <time>2020-07-04T21:31:04+02:00</time>
      </trkpt>
      <trkpt lat="42.69009" lon="1.78231">
        <ele>1287</ele>
        <time>2020-07-04T21:31:09+02:00</time>
      </trkpt>
      <trkpt lat="42.68977" lon="1.78215">
        <ele>1293</ele>
        <time>2020-07-04T21:31:14+02:00</time>
      </trkpt>
      <trkpt lat="42.68944" lon="1.7821">
        <ele>1297</ele>
        <time>2020-07-04T21:31:19+02:00</time>
      </trkpt>
      <trkpt lat="42.68937" lon="1.78216">
        <ele>1296</ele>
        <time>2020-07-04T21:31:24+02:00</time>
      </trkpt>
      <trkpt lat="42.68912" lon="1.78223">
        <ele>1297</ele>
        <time>2020-07-04T21:31:29+02:00</time>
      </trkpt>
      <trkpt lat="42.68889" lon="1.78217">
        <ele>1301</ele>
        <time>2020-07-04T21:31:34+02:00</time>
      </trkpt>
      <trkpt lat="42.68872" lon="1.78223">
        <ele>1302</ele>
        <time>2020-07-04T21:31:39+02:00</time>
      </trkpt>
      <trkpt lat="42.68837" lon="1.78223">
        <ele>1307</ele>
        <time>2020-07-04T21:31:44+02:00</time>
      </trkpt>
      <trkpt lat="42.68828" lon="1.78219">
        <ele>1308</ele>
        <time>2020-07-04T21:31:49+02:00</time>
      </trkpt>
      <trkpt lat="42.68801" lon="1.78225">
        <ele>1306</ele>
        <time>2020-07-04T21:31:54+02:00</time>
      </trkpt>
      <trkpt lat="42.68788" lon="1.78238">
        <ele>1303</ele>
        <time>2020-07-04T21:31:59+02:00</time>
      </trkpt>
      <trkpt lat="42.68752" lon="1.78238">
        <ele>1303</ele>
        <time>2020-07-04T21:32:04+02:00</time>
      </trkpt>
      <trkpt lat="42.68736" lon="1.78228">
        <ele>1305</ele>
        <time>2020-07-04T21:32:09+02:00</time>
      </trkpt>
      <trkpt lat="42.6869" lon="1.78242">
        <ele>1303</ele>
        <time>2020-07-04T21:32:14+02:00</time>
      </trkpt>
      <trkpt lat="42.68671" lon="1.78253">
        <ele>1303</ele>
        <time>2020-07-04T21:32:19+02:00</time>
      </trkpt>
      <trkpt lat="42.68641" lon="1.78254">
        <ele>1310</ele>
        <time>2020-07-04T21:32:24+02:00</time>
      </trkpt>
      <trkpt lat="42.68621" lon="1.78245">
        <ele>1315</ele>
        <time>2020-07-04T21:32:29+02:00</time>
      </trkpt>
      <trkpt lat="42.68591" lon="1.78253">
        <ele>1322</ele>
        <time>2020-07-04T21:32:34+02:00</time>
      </trkpt>
      <trkpt lat="42.68587" lon="1.78228">
        <ele>1325</ele>
        <time>2020-07-04T21:32:39+02:00</time>
      </trkpt>
      <trkpt lat="42.68572" lon="1.78217">
        <ele>1329</ele>
        <time>2020-07-04T21:32:44+02:00</time>
      </trkpt>
      <trkpt lat="42.68568" lon="1.78208">
        <ele>1330</ele>
        <time>2020-07-04T21:32:49+02:00</time>
      </trkpt>
      <trkpt lat="42.68534" lon="1.78217">
        <ele>1336</ele>
        <time>2020-07-04T21:32:54+02:00</time>
      </trkpt>
      <trkpt lat="42.68526" lon="1.78217">
        <ele>1338</ele>
        <time>2020-07-04T21:32:59+02:00</time>
      </trkpt>
      <trkpt lat="42.68513" lon="1.78203">
        <ele>1341</ele>
        <time>2020-07-04T21:33:04+02:00</time>
      </trkpt>
      <trkpt lat="42.68505" lon="1.78187">
        <ele>1343</ele>
        <time>2020-07-04T21:33:09+02:00</time>
      </trkpt>
      <trkpt lat="42.6846" lon="1.78156">
        <ele>1348</ele>
        <time>2020-07-04T21:33:14+02:00</time>
      </trkpt>
      <trkpt lat="42.68398" lon="1.78128">
        <ele>1356</ele>
        <time>2020-07-04T21:33:19+02:00</time>
      </trkpt>
      <trkpt lat="42.68365" lon="1.78113">
        <ele>1359</ele>
        <time>2020-07-04T21:33:24+02:00</time>
      </trkpt>
      <trkpt lat="42.68322" lon="1.78088">
        <ele>1362</ele>
        <time>2020-07-04T21:33:29+02:00</time>
      </trkpt>
      <trkpt lat="42.68303" lon="1.78083">
        <ele>1362</ele>
        <time>2020-07-04T21:33:34+02:00</time>
      </trkpt>
      <trkpt lat="42.6826" lon="1.78057">
        <ele>1369</ele>
        <time>2020-07-04T21:33:39+02:00</time>
      </trkpt>
      <trkpt lat="42.68229" lon="1.78075">
        <ele>1368</ele>
        <time>2020-07-04T21:33:44+02:00</time>
      </trkpt>
      <trkpt lat="42.68192" lon="1.78078">
        <ele>1372</ele>
        <time>2020-07-04T21:33:49+02:00</time>
      </trkpt>
      <trkpt lat="42.68144" lon="1.78055">
        <ele>1380</ele>
        <time>2020-07-04T21:33:54+02:00</time>
      </trkpt>
      <trkpt lat="42.68109" lon="1.78042">
        <ele>1384</ele>
        <time>2020-07-04T21:33:59+02:00</time>
      </trkpt>
      <trkpt lat="42.68056" lon="1.78033">
        <ele>1387</ele>
        <time>2020-07-04T21:34:04+02:00</time>
      </trkpt>
      <trkpt lat="42.68013" lon="1.78">
        <ele>1385</ele>
        <time>2020-07-04T21:34:09+02:00</time>
      </trkpt>
      <trkpt lat="42.67993" lon="1.77977">
        <ele>1390</ele>
        <time>2020-07-04T21:34:14+02:00</time>
      </trkpt>
      <trkpt lat="42.67955" lon="1.77963">
        <ele>1393</ele>
        <time>2020-07-04T21:34:19+02:00</time>
      </trkpt>
      <trkpt lat="42.67936" lon="1.77939">
        <ele>1394</ele>
        <time>2020-07-04T21:34:24+02:00</time>
      </trkpt>
      <trkpt lat="42.67923" lon="1.77932">
        <ele>1393</ele>
        <time>2020-07-04T21:34:29+02:00</time>
      </trkpt>
      <trkpt lat="42.6791" lon="1.7791">
        <ele>1393</ele>
        <time>2020-07-04T21:34:34+02:00</time>
      </trkpt>
      <trkpt lat="42.67897" lon="1.77915">
        <ele>1392</ele>
        <time>2020-07-04T21:34:39+02:00</time>
      </trkpt>
      <trkpt lat="42.67878" lon="1.77907">
        <ele>1393</ele>
        <time>2020-07-04T21:34:44+02:00</time>
      </trkpt>
      <trkpt lat="42.67843" lon="1.77877">
        <ele>1395</ele>
        <time>2020-07-04T21:34:49+02:00</time>
      </trkpt>
      <trkpt lat="42.67813" lon="1.77844">
        <ele>1398</ele>
        <time>2020-07-04T21:34:54+02:00</time>
      </trkpt>
      <trkpt lat="42.67807" lon="1.77816">
        <ele>1403</ele>
        <time>2020-07-04T21:34:59+02:00</time>
      </trkpt>
      <trkpt lat="42.6776" lon="1.77792">
        <ele>1406</ele>
        <time>2020-07-04T21:35:04+02:00</time>
      </trkpt>
      <trkpt lat="42.67735" lon="1.77768">
        <ele>1408</ele>
        <time>2020-07-04T21:35:09+02:00</time>
      </trkpt>
      <trkpt lat="42.67731" lon="1.7775">
        <ele>1408</ele>
        <time>2020-07-04T21:35:14+02:00</time>
      </trkpt>
      <trkpt lat="42.67699" lon="1.7773">
        <ele>1412</ele>
        <time>2020-07-04T21:35:19+02:00</time>
      </trkpt>
      <trkpt lat="42.6768" lon="1.7771">
        <ele>1413</ele>
        <time>2020-07-04T21:35:24+02:00</time>
      </trkpt>
      <trkpt lat="42.67672" lon="1.77699">
        <ele>1413</ele>
        <time>2020-07-04T21:35:29+02:00</time>
      </trkpt>
      <trkpt lat="42.67665" lon="1.77681">
        <ele>1413</ele>
        <time>2020-07-04T21:35:34+02:00</time>
      </trkpt>
      <trkpt lat="42.67655" lon="1.77674">
        <ele>1415</ele>
        <time>2020-07-04T21:35:39+02:00</time>
      </trkpt>
      <trkpt lat="42.67641" lon="1.77583">
        <ele>1434</ele>
        <time>2020-07-04T21:35:44+02:00</time>
      </trkpt>
      <trkpt lat="42.67624" lon="1.77533">
        <ele>1445</ele>
        <time>2020-07-04T21:35:49+02:00</time>
      </trkpt>
      <trkpt lat="42.67643" lon="1.77428">
        <ele>1471</ele>
        <time>2020-07-04T21:35:54+02:00</time>
      </trkpt>
      <trkpt lat="42.67638" lon="1.77377">
        <ele>1484</ele>
        <time>2020-07-04T21:35:59+02:00</time>
      </trkpt>
      <trkpt lat="42.6766" lon="1.77347">
        <ele>1495</ele>
        <time>2020-07-04T21:36:04+02:00</time>
      </trkpt>
      <trkpt lat="42.67648" lon="1.77276">
        <ele>1510</ele>
        <time>2020-07-04T21:36:09+02:00</time>
      </trkpt>
      <trkpt lat="42.67662" lon="1.77242">
        <ele>1520</ele>
        <time>2020-07-04T21:36:14+02:00</time>
      </trkpt>
      <trkpt lat="42.6767" lon="1.77162">
        <ele>1531</ele>
        <time>2020-07-04T21:36:19+02:00</time>
      </trkpt>
      <trkpt lat="42.67668" lon="1.77096">
        <ele>1539</ele>
        <time>2020-07-04T21:36:24+02:00</time>
      </trkpt>
      <trkpt lat="42.67665" lon="1.77044">
        <ele>1543</ele>
        <time>2020-07-04T21:36:29+02:00</time>
      </trkpt>
      <trkpt lat="42.67673" lon="1.77001">
        <ele>1548</ele>
        <time>2020-07-04T21:36:34+02:00</time>
      </trkpt>
      <trkpt lat="42.67659" lon="1.76965">
        <ele>1551</ele>
        <time>2020-07-04T21:36:39+02:00</time>
      </trkpt>
      <trkpt lat="42.67659" lon="1.76911">
        <ele>1558</ele>
        <time>2020-07-04T21:36:44+02:00</time>
      </trkpt>
      <trkpt lat="42.67651" lon="1.76876">
        <ele>1564</ele>
        <time>2020-07-04T21:36:49+02:00</time>
      </trkpt>
      <trkpt lat="42.67665" lon="1.76797">
        <ele>1579</ele>
        <time>2020-07-04T21:36:54+02:00</time>
      </trkpt>
      <trkpt lat="42.67673" lon="1.76732">
        <ele>1597</ele>
        <time>2020-07-04T21:36:59+02:00</time>
      </trkpt>
      <trkpt lat="42.67693" lon="1.76692">
        <ele>1606</ele>
        <time>2020-07-04T21:37:04+02:00</time>
      </trkpt>
      <trkpt lat="42.67701" lon="1.76677">
        <ele>1609</ele>
        <time>2020-07-04T21:37:09+02:00</time>
      </trkpt>
      <trkpt lat="42.67687" lon="1.76636">
        <ele>1620</ele>
        <time>2020-07-04T21:37:14+02:00</time>
      </trkpt>
      <trkpt lat="42.67663" lon="1.76619">
        <ele>1626</ele>
        <time>2020-07-04T21:37:19+02:00</time>
      </trkpt>
      <trkpt lat="42.67648" lon="1.76591">
        <ele>1637</ele>
        <time>2020-07-04T21:37:24+02:00</time>
      </trkpt>
      <trkpt lat="42.67613" lon="1.76494">
        <ele>1664</ele>
        <time>2020-07-04T21:37:29+02:00</time>
      </trkpt>
      <trkpt lat="42.6758" lon="1.76456">
        <ele>1675</ele>
        <time>2020-07-04T21:37:34+02:00</time>
      </trkpt>
      <trkpt lat="42.67577" lon="1.76451">
        <ele>1676</ele>
        <time>2020-07-04T21:37:39+02:00</time>
      </trkpt>
      <trkpt lat="42.67555" lon="1.76421">
        <ele>1682</ele>
        <time>2020-07-04T21:37:44+02:00</time>
      </trkpt>
      <trkpt lat="42.67533" lon="1.76417">
        <ele>1688</ele>
        <time>2020-07-04T21:37:49+02:00</time>
      </trkpt>
      <trkpt lat="42.67503" lon="1.76396">
        <ele>1694</ele>
        <time>2020-07-04T21:37:54+02:00</time>
      </trkpt>
      <trkpt lat="42.6748" lon="1.76392">
        <ele>1699</ele>
        <time>2020-07-04T21:37:59+02:00</time>
      </trkpt>
      <trkpt lat="42.67467" lon="1.76392">
        <ele>1702</ele>
        <time>2020-07-04T21:38:04+02:00</time>
      </trkpt>
      <trkpt lat="42.67453" lon="1.76396">
        <ele>1705</ele>
        <time>2020-07-04T21:38:09+02:00</time>
      </trkpt>
      <trkpt lat="42.67431" lon="1.76387">
        <ele>1709</ele>
        <time>2020-07-04T21:38:14+02:00</time>
      </trkpt>
      <trkpt lat="42.67416" lon="1.76387">
        <ele>1712</ele>
        <time>2020-07-04T21:38:19+02:00</time>
      </trkpt>
      <trkpt lat="42.67408" lon="1.76382">
        <ele>1712</ele>
        <time>2020-07-04T21:38:24+02:00</time>
      </trkpt>
      <trkpt lat="42.67394" lon="1.76373">
        <ele>1713</ele>
        <time>2020-07-04T21:38:29+02:00</time>
      </trkpt>
      <trkpt lat="42.67375" lon="1.76377">
        <ele>1717</ele>
        <time>2020-07-04T21:38:34+02:00</time>
      </trkpt>
      <trkpt lat="42.67357" lon="1.76376">
        <ele>1720</ele>
        <time>2020-07-04T21:38:39+02:00</time>
      </trkpt>
      <trkpt lat="42.67337" lon="1.76379">
        <ele>1724</ele>
        <time>2020-07-04T21:38:44+02:00</time>
      </trkpt>
      <trkpt lat="42.67309" lon="1.76384">
        <ele>1729</ele>
        <time>2020-07-04T21:38:49+02:00</time>
      </trkpt>
      <trkpt lat="42.6728" lon="1.76344">
        <ele>1733</ele>
        <time>2020-07-04T21:38:54+02:00</time>
      </trkpt>
      <trkpt lat="42.6726" lon="1.76311">
        <ele>1737</ele>
        <time>2020-07-04T21:38:59+02:00</time>
      </trkpt>
      <trkpt lat="42.67225" lon="1.76271">
        <ele>1741</ele>
        <time>2020-07-04T21:39:04+02:00</time>
      </trkpt>
      <trkpt lat="42.67196" lon="1.76246">
        <ele>1746</ele>
        <time>2020-07-04T21:39:09+02:00</time>
      </trkpt>
      <trkpt lat="42.67158" lon="1.76213">
        <ele>1757</ele>
        <time>2020-07-04T21:39:14+02:00</time>
      </trkpt>
      <trkpt lat="42.67136" lon="1.76181">
        <ele>1765</ele>
        <time>2020-07-04T21:39:19+02:00</time>
      </trkpt>
      <trkpt lat="42.67098" lon="1.76151">
        <ele>1777</ele>
        <time>2020-07-04T21:39:24+02:00</time>
      </trkpt>
      <trkpt lat="42.6705" lon="1.76134">
        <ele>1787</ele>
        <time>2020-07-04T21:39:29+02:00</time>
      </trkpt>
      <trkpt lat="42.6702" lon="1.76132">
        <ele>1792</ele>
        <time>2020-07-04T21:39:34+02:00</time>
      </trkpt>
      <trkpt lat="42.66987" lon="1.76117">
        <ele>1801</ele>
        <time>2020-07-04T21:39:39+02:00</time>
      </trkpt>
      <trkpt lat="42.66976" lon="1.76104">
        <ele>1806</ele>
        <time>2020-07-04T21:39:44+02:00</time>
      </trkpt>
      <trkpt lat="42.66946" lon="1.76031">
        <ele>1831</ele>
        <time>2020-07-04T21:39:49+02:00</time>
      </trkpt>
      <trkpt lat="42.66908" lon="1.75945">
        <ele>1856</ele>
        <time>2020-07-04T21:39:54+02:00</time>
      </trkpt>
      <trkpt lat="42.669" lon="1.75859">
        <ele>1871</ele>
        <time>2020-07-04T21:39:59+02:00</time>
      </trkpt>
      <trkpt lat="42.66902" lon="1.75816">
        <ele>1875</ele>
        <time>2020-07-04T21:40:04+02:00</time>
      </trkpt>
      <trkpt lat="42.66905" lon="1.75797">
        <ele>1875</ele>
        <time>2020-07-04T21:40:09+02:00</time>
      </trkpt>
      <trkpt lat="42.66896" lon="1.75769">
        <ele>1879</ele>
        <time>2020-07-04T21:40:14+02:00</time>
      </trkpt>
      <trkpt lat="42.66867" lon="1.75769">
        <ele>1887</ele>
        <time>2020-07-04T21:40:19+02:00</time>
      </trkpt>
      <trkpt lat="42.66847" lon="1.75767">
        <ele>1893</ele>
        <time>2020-07-04T21:40:24+02:00</time>
      </trkpt>
      <trkpt lat="42.668" lon="1.75765">
        <ele>1908</ele>
        <time>2020-07-04T21:40:29+02:00</time>
      </trkpt>
      <trkpt lat="42.66781" lon="1.75754">
        <ele>1913</ele>
        <time>2020-07-04T21:40:34+02:00</time>
      </trkpt>
      <trkpt lat="42.66743" lon="1.75696">
        <ele>1923</ele>
        <time>2020-07-04T21:40:39+02:00</time>
      </trkpt>
      <trkpt lat="42.66695" lon="1.7566">
        <ele>1926</ele>
        <time>2020-07-04T21:40:44+02:00</time>
      </trkpt>
      <trkpt lat="42.66663" lon="1.75651">
        <ele>1930</ele>
        <time>2020-07-04T21:40:49+02:00</time>
      </trkpt>
      <trkpt lat="42.66644" lon="1.75626">
        <ele>1939</ele>
        <time>2020-07-04T21:40:54+02:00</time>
      </trkpt>
      <trkpt lat="42.66625" lon="1.75615">
        <ele>1943</ele>
        <time>2020-07-04T21:40:59+02:00</time>
      </trkpt>
      <trkpt lat="42.66606" lon="1.75583">
        <ele>1949</ele>
        <time>2020-07-04T21:41:04+02:00</time>
      </trkpt>
      <trkpt lat="42.66583" lon="1.75553">
        <ele>1954</ele>
        <time>2020-07-04T21:41:09+02:00</time>
      </trkpt>
      <trkpt lat="42.66559" lon="1.75492">
        <ele>1969</ele>
        <time>2020-07-04T21:41:14+02:00</time>
      </trkpt>
      <trkpt lat="42.66516" lon="1.75447">
        <ele>1985</ele>
        <time>2020-07-04T21:41:19+02:00</time>
      </trkpt>
      <trkpt lat="42.66445" lon="1.75364">
        <ele>2000</ele>
        <time>2020-07-04T21:41:24+02:00</time>
      </trkpt>
      <trkpt lat="42.66441" lon="1.75319">
        <ele>2006</ele>
        <time>2020-07-04T21:41:29+02:00</time>
      </trkpt>
      <trkpt lat="42.6643" lon="1.75286">
        <ele>2009</ele>
        <time>2020-07-04T21:41:34+02:00</time>
      </trkpt>
      <trkpt lat="42.66436" lon="1.75256">
        <ele>2016</ele>
        <time>2020-07-04T21:41:39+02:00</time>
      </trkpt>
      <trkpt lat="42.66467" lon="1.7522">
        <ele>2039</ele>
        <time>2020-07-04T21:41:44+02:00</time>
      </trkpt>
      <trkpt lat="42.66485" lon="1.75201">
        <ele>2050</ele>
        <time>2020-07-04T21:41:49+02:00</time>
      </trkpt>
      <trkpt lat="42.6651" lon="1.75205">
        <ele>2056</ele>
        <time>2020-07-04T21:41:54+02:00</time>
      </trkpt>
      <trkpt lat="42.66513" lon="1.75177">
        <ele>2065</ele>
        <time>2020-07-04T21:41:59+02:00</time>
      </trkpt>
      <trkpt lat="42.66523" lon="1.75168">
        <ele>2071</ele>
        <time>2020-07-04T21:42:04+02:00</time>
      </trkpt>
      <trkpt lat="42.66519" lon="1.7508">
        <ele>2092</ele>
        <time>2020-07-04T21:42:09+02:00</time>
      </trkpt>
      <trkpt lat="42.66546" lon="1.75046">
        <ele>2096</ele>
        <time>2020-07-04T21:42:14+02:00</time>
      </trkpt>
      <trkpt lat="42.66595" lon="1.75027">
        <ele>2101</ele>
        <time>2020-07-04T21:42:19+02:00</time>
      </trkpt>
      <trkpt lat="42.66643" lon="1.75027">
        <ele>2105</ele>
        <time>2020-07-04T21:42:24+02:00</time>
      </trkpt>
      <trkpt lat="42.66682" lon="1.75048">
        <ele>2107</ele>
        <time>2020-07-04T21:42:29+02:00</time>
      </trkpt>
      <trkpt lat="42.66718" lon="1.75046">
        <ele>2103</ele>
        <time>2020-07-04T21:42:34+02:00</time>
      </trkpt>
      <trkpt lat="42.66751" lon="1.75027">
        <ele>2100</ele>
        <time>2020-07-04T21:42:39+02:00</time>
      </trkpt>
      <trkpt lat="42.66718" lon="1.75046">
        <ele>2103</ele>
        <time>2020-07-04T21:42:44+02:00</time>
      </trkpt>
      <trkpt lat="42.66682" lon="1.75048">
        <ele>2107</ele>
        <time>2020-07-04T21:42:49+02:00</time>
      </trkpt>
      <trkpt lat="42.66643" lon="1.75027">
        <ele>2105</ele>
        <time>2020-07-04T21:42:54+02:00</time>
      </trkpt>
      <trkpt lat="42.66595" lon="1.75027">
        <ele>2101</ele>
        <time>2020-07-04T21:42:59+02:00</time>
      </trkpt>
      <trkpt lat="42.66546" lon="1.75046">
        <ele>2096</ele>
        <time>2020-07-04T21:43:04+02:00</time>
      </trkpt>
      <trkpt lat="42.66519" lon="1.7508">
        <ele>2092</ele>
        <time>2020-07-04T21:43:09+02:00</time>
      </trkpt>
      <trkpt lat="42.66523" lon="1.75168">
        <ele>2071</ele>
        <time>2020-07-04T21:43:14+02:00</time>
      </trkpt>
      <trkpt lat="42.66513" lon="1.75177">
        <ele>2065</ele>
        <time>2020-07-04T21:43:19+02:00</time>
      </trkpt>
      <trkpt lat="42.6651" lon="1.75205">
        <ele>2056</ele>
        <time>2020-07-04T21:43:24+02:00</time>
      </trkpt>
      <trkpt lat="42.66485" lon="1.75201">
        <ele>2050</ele>
        <time>2020-07-04T21:43:29+02:00</time>
      </trkpt>
      <trkpt lat="42.66467" lon="1.7522">
        <ele>2039</ele>
        <time>2020-07-04T21:43:34+02:00</time>
      </trkpt>
      <trkpt lat="42.66436" lon="1.75256">
        <ele>2016</ele>
        <time>2020-07-04T21:43:39+02:00</time>
      </trkpt>
      <trkpt lat="42.6643" lon="1.75286">
        <ele>2009</ele>
        <time>2020-07-04T21:43:44+02:00</time>
      </trkpt>
      <trkpt lat="42.66441" lon="1.75319">
        <ele>2006</ele>
        <time>2020-07-04T21:43:49+02:00</time>
      </trkpt>
      <trkpt lat="42.66445" lon="1.75364">
        <ele>2000</ele>
        <time>2020-07-04T21:43:54+02:00</time>
      </trkpt>
      <trkpt lat="42.66516" lon="1.75447">
        <ele>1985</ele>
        <time>2020-07-04T21:43:59+02:00</time>
      </trkpt>
      <trkpt lat="42.66559" lon="1.75492">
        <ele>1969</ele>
        <time>2020-07-04T21:44:04+02:00</time>
      </trkpt>
      <trkpt lat="42.66583" lon="1.75553">
        <ele>1954</ele>
        <time>2020-07-04T21:44:09+02:00</time>
      </trkpt>
      <trkpt lat="42.66606" lon="1.75583">
        <ele>1949</ele>
        <time>2020-07-04T21:44:14+02:00</time>
      </trkpt>
      <trkpt lat="42.66625" lon="1.75615">
        <ele>1943</ele>
        <time>2020-07-04T21:44:19+02:00</time>
      </trkpt>
      <trkpt lat="42.66644" lon="1.75626">
        <ele>1939</ele>
        <time>2020-07-04T21:44:24+02:00</time>
      </trkpt>
      <trkpt lat="42.66663" lon="1.75651">
        <ele>1930</ele>
        <time>2020-07-04T21:44:29+02:00</time>
      </trkpt>
      <trkpt lat="42.66695" lon="1.7566">
        <ele>1926</ele>
        <time>2020-07-04T21:44:34+02:00</time>
      </trkpt>
      <trkpt lat="42.66743" lon="1.75696">
        <ele>1923</ele>
        <time>2020-07-04T21:44:39+02:00</time>
      </trkpt>
      <trkpt lat="42.66781" lon="1.75754">
        <ele>1913</ele>
        <time>2020-07-04T21:44:44+02:00</time>
      </trkpt>
      <trkpt lat="42.668" lon="1.75765">
        <ele>1908</ele>
        <time>2020-07-04T21:44:49+02:00</time>
      </trkpt>
      <trkpt lat="42.66847" lon="1.75767">
        <ele>1893</ele>
        <time>2020-07-04T21:44:54+02:00</time>
      </trkpt>
      <trkpt lat="42.66867" lon="1.75769">
        <ele>1887</ele>
        <time>2020-07-04T21:44:59+02:00</time>
      </trkpt>
      <trkpt lat="42.66896" lon="1.75769">
        <ele>1879</ele>
        <time>2020-07-04T21:45:04+02:00</time>
      </trkpt>
      <trkpt lat="42.66905" lon="1.75797">
        <ele>1875</ele>
        <time>2020-07-04T21:45:09+02:00</time>
      </trkpt>
      <trkpt lat="42.66902" lon="1.75816">
        <ele>1875</ele>
        <time>2020-07-04T21:45:14+02:00</time>
      </trkpt>
      <trkpt lat="42.669" lon="1.75859">
        <ele>1871</ele>
        <time>2020-07-04T21:45:19+02:00</time>
      </trkpt>
      <trkpt lat="42.66908" lon="1.75945">
        <ele>1856</ele>
        <time>2020-07-04T21:45:24+02:00</time>
      </trkpt>
      <trkpt lat="42.66946" lon="1.76031">
        <ele>1831</ele>
        <time>2020-07-04T21:45:29+02:00</time>
      </trkpt>
      <trkpt lat="42.66976" lon="1.76104">
        <ele>1806</ele>
        <time>2020-07-04T21:45:34+02:00</time>
      </trkpt>
      <trkpt lat="42.66987" lon="1.76117">
        <ele>1801</ele>
        <time>2020-07-04T21:45:39+02:00</time>
      </trkpt>
      <trkpt lat="42.6702" lon="1.76132">
        <ele>1792</ele>
        <time>2020-07-04T21:45:44+02:00</time>
      </trkpt>
      <trkpt lat="42.6705" lon="1.76134">
        <ele>1787</ele>
        <time>2020-07-04T21:45:49+02:00</time>
      </trkpt>
      <trkpt lat="42.67098" lon="1.76151">
        <ele>1777</ele>
        <time>2020-07-04T21:45:54+02:00</time>
      </trkpt>
      <trkpt lat="42.67136" lon="1.76181">
        <ele>1765</ele>
        <time>2020-07-04T21:45:59+02:00</time>
      </trkpt>
      <trkpt lat="42.67158" lon="1.76213">
        <ele>1757</ele>
        <time>2020-07-04T21:46:04+02:00</time>
      </trkpt>
      <trkpt lat="42.67196" lon="1.76246">
        <ele>1746</ele>
        <time>2020-07-04T21:46:09+02:00</time>
      </trkpt>
      <trkpt lat="42.67225" lon="1.76271">
        <ele>1741</ele>
        <time>2020-07-04T21:46:14+02:00</time>
      </trkpt>
      <trkpt lat="42.6726" lon="1.76313">
        <ele>1737</ele>
        <time>2020-07-04T21:46:19+02:00</time>
      </trkpt>
      <trkpt lat="42.6728" lon="1.76344">
        <ele>1733</ele>
        <time>2020-07-04T21:46:24+02:00</time>
      </trkpt>
      <trkpt lat="42.67309" lon="1.76384">
        <ele>1729</ele>
        <time>2020-07-04T21:46:29+02:00</time>
      </trkpt>
      <trkpt lat="42.67336" lon="1.7638">
        <ele>1724</ele>
        <time>2020-07-04T21:46:34+02:00</time>
      </trkpt>
      <trkpt lat="42.67357" lon="1.76377">
        <ele>1720</ele>
        <time>2020-07-04T21:46:39+02:00</time>
      </trkpt>
      <trkpt lat="42.67376" lon="1.76377">
        <ele>1717</ele>
        <time>2020-07-04T21:46:44+02:00</time>
      </trkpt>
      <trkpt lat="42.67394" lon="1.76373">
        <ele>1713</ele>
        <time>2020-07-04T21:46:49+02:00</time>
      </trkpt>
      <trkpt lat="42.67408" lon="1.76382">
        <ele>1712</ele>
        <time>2020-07-04T21:46:54+02:00</time>
      </trkpt>
      <trkpt lat="42.67427" lon="1.76387">
        <ele>1709</ele>
        <time>2020-07-04T21:46:59+02:00</time>
      </trkpt>
      <trkpt lat="42.67431" lon="1.76387">
        <ele>1709</ele>
        <time>2020-07-04T21:47:04+02:00</time>
      </trkpt>
      <trkpt lat="42.67453" lon="1.76396">
        <ele>1705</ele>
        <time>2020-07-04T21:47:09+02:00</time>
      </trkpt>
      <trkpt lat="42.67467" lon="1.76392">
        <ele>1702</ele>
        <time>2020-07-04T21:47:14+02:00</time>
      </trkpt>
      <trkpt lat="42.6748" lon="1.76392">
        <ele>1699</ele>
        <time>2020-07-04T21:47:19+02:00</time>
      </trkpt>
      <trkpt lat="42.67503" lon="1.76396">
        <ele>1694</ele>
        <time>2020-07-04T21:47:24+02:00</time>
      </trkpt>
      <trkpt lat="42.67533" lon="1.76417">
        <ele>1688</ele>
        <time>2020-07-04T21:47:29+02:00</time>
      </trkpt>
      <trkpt lat="42.67555" lon="1.76421">
        <ele>1682</ele>
        <time>2020-07-04T21:47:34+02:00</time>
      </trkpt>
      <trkpt lat="42.67577" lon="1.76451">
        <ele>1676</ele>
        <time>2020-07-04T21:47:39+02:00</time>
      </trkpt>
      <trkpt lat="42.6758" lon="1.76456">
        <ele>1675</ele>
        <time>2020-07-04T21:47:44+02:00</time>
      </trkpt>
      <trkpt lat="42.67613" lon="1.76494">
        <ele>1664</ele>
        <time>2020-07-04T21:47:49+02:00</time>
      </trkpt>
      <trkpt lat="42.67648" lon="1.76591">
        <ele>1637</ele>
        <time>2020-07-04T21:47:54+02:00</time>
      </trkpt>
      <trkpt lat="42.67663" lon="1.76619">
        <ele>1626</ele>
        <time>2020-07-04T21:47:59+02:00</time>
      </trkpt>
      <trkpt lat="42.67687" lon="1.76636">
        <ele>1620</ele>
        <time>2020-07-04T21:48:04+02:00</time>
      </trkpt>
      <trkpt lat="42.67701" lon="1.76677">
        <ele>1609</ele>
        <time>2020-07-04T21:48:09+02:00</time>
      </trkpt>
      <trkpt lat="42.67693" lon="1.76692">
        <ele>1606</ele>
        <time>2020-07-04T21:48:14+02:00</time>
      </trkpt>
      <trkpt lat="42.67673" lon="1.76732">
        <ele>1597</ele>
        <time>2020-07-04T21:48:19+02:00</time>
      </trkpt>
      <trkpt lat="42.67665" lon="1.76797">
        <ele>1579</ele>
        <time>2020-07-04T21:48:24+02:00</time>
      </trkpt>
      <trkpt lat="42.67651" lon="1.76876">
        <ele>1564</ele>
        <time>2020-07-04T21:48:29+02:00</time>
      </trkpt>
      <trkpt lat="42.67659" lon="1.76911">
        <ele>1558</ele>
        <time>2020-07-04T21:48:34+02:00</time>
      </trkpt>
      <trkpt lat="42.67659" lon="1.76965">
        <ele>1551</ele>
        <time>2020-07-04T21:48:39+02:00</time>
      </trkpt>
      <trkpt lat="42.67673" lon="1.77001">
        <ele>1548</ele>
        <time>2020-07-04T21:48:44+02:00</time>
      </trkpt>
      <trkpt lat="42.67665" lon="1.77044">
        <ele>1543</ele>
        <time>2020-07-04T21:48:49+02:00</time>
      </trkpt>
      <trkpt lat="42.67668" lon="1.77096">
        <ele>1539</ele>
        <time>2020-07-04T21:48:54+02:00</time>
      </trkpt>
      <trkpt lat="42.6767" lon="1.77162">
        <ele>1531</ele>
        <time>2020-07-04T21:48:59+02:00</time>
      </trkpt>
      <trkpt lat="42.67662" lon="1.77242">
        <ele>1520</ele>
        <time>2020-07-04T21:49:04+02:00</time>
      </trkpt>
      <trkpt lat="42.67648" lon="1.77276">
        <ele>1510</ele>
        <time>2020-07-04T21:49:09+02:00</time>
      </trkpt>
      <trkpt lat="42.6766" lon="1.77347">
        <ele>1495</ele>
        <time>2020-07-04T21:49:14+02:00</time>
      </trkpt>
      <trkpt lat="42.67638" lon="1.77377">
        <ele>1484</ele>
        <time>2020-07-04T21:49:19+02:00</time>
      </trkpt>
      <trkpt lat="42.67643" lon="1.77428">
        <ele>1471</ele>
        <time>2020-07-04T21:49:24+02:00</time>
      </trkpt>
      <trkpt lat="42.67624" lon="1.77533">
        <ele>1445</ele>
        <time>2020-07-04T21:49:29+02:00</time>
      </trkpt>
      <trkpt lat="42.67641" lon="1.77583">
        <ele>1434</ele>
        <time>2020-07-04T21:49:34+02:00</time>
      </trkpt>
      <trkpt lat="42.67655" lon="1.77674">
        <ele>1415</ele>
        <time>2020-07-04T21:49:39+02:00</time>
      </trkpt>
      <trkpt lat="42.67665" lon="1.77681">
        <ele>1413</ele>
        <time>2020-07-04T21:49:44+02:00</time>
      </trkpt>
      <trkpt lat="42.67672" lon="1.77699">
        <ele>1413</ele>
        <time>2020-07-04T21:49:49+02:00</time>
      </trkpt>
      <trkpt lat="42.6768" lon="1.7771">
        <ele>1413</ele>
        <time>2020-07-04T21:49:54+02:00</time>
      </trkpt>
      <trkpt lat="42.67699" lon="1.7773">
        <ele>1412</ele>
        <time>2020-07-04T21:49:59+02:00</time>
      </trkpt>
      <trkpt lat="42.67731" lon="1.7775">
        <ele>1408</ele>
        <time>2020-07-04T21:50:04+02:00</time>
      </trkpt>
      <trkpt lat="42.67735" lon="1.77768">
        <ele>1408</ele>
        <time>2020-07-04T21:50:09+02:00</time>
      </trkpt>
      <trkpt lat="42.6776" lon="1.77792">
        <ele>1406</ele>
        <time>2020-07-04T21:50:14+02:00</time>
      </trkpt>
      <trkpt lat="42.67807" lon="1.77816">
        <ele>1403</ele>
        <time>2020-07-04T21:50:19+02:00</time>
      </trkpt>
      <trkpt lat="42.67813" lon="1.77844">
        <ele>1398</ele>
        <time>2020-07-04T21:50:24+02:00</time>
      </trkpt>
      <trkpt lat="42.67843" lon="1.77877">
        <ele>1395</ele>
        <time>2020-07-04T21:50:29+02:00</time>
      </trkpt>
      <trkpt lat="42.67878" lon="1.77907">
        <ele>1393</ele>
        <time>2020-07-04T21:50:34+02:00</time>
      </trkpt>
      <trkpt lat="42.67897" lon="1.77915">
        <ele>1392</ele>
        <time>2020-07-04T21:50:39+02:00</time>
      </trkpt>
      <trkpt lat="42.6791" lon="1.7791">
        <ele>1393</ele>
        <time>2020-07-04T21:50:44+02:00</time>
      </trkpt>
      <trkpt lat="42.67923" lon="1.77932">
        <ele>1393</ele>
        <time>2020-07-04T21:50:49+02:00</time>
      </trkpt>
      <trkpt lat="42.67936" lon="1.77939">
        <ele>1394</ele>
        <time>2020-07-04T21:50:54+02:00</time>
      </trkpt>
      <trkpt lat="42.67955" lon="1.77963">
        <ele>1393</ele>
        <time>2020-07-04T21:50:59+02:00</time>
      </trkpt>
      <trkpt lat="42.67993" lon="1.77977">
        <ele>1390</ele>
        <time>2020-07-04T21:51:04+02:00</time>
      </trkpt>
      <trkpt lat="42.68013" lon="1.78">
        <ele>1385</ele>
        <time>2020-07-04T21:51:09+02:00</time>
      </trkpt>
      <trkpt lat="42.68056" lon="1.78033">
        <ele>1387</ele>
        <time>2020-07-04T21:51:14+02:00</time>
      </trkpt>
      <trkpt lat="42.68109" lon="1.78042">
        <ele>1384</ele>
        <time>2020-07-04T21:51:19+02:00</time>
      </trkpt>
      <trkpt lat="42.68144" lon="1.78055">
        <ele>1380</ele>
        <time>2020-07-04T21:51:24+02:00</time>
      </trkpt>
      <trkpt lat="42.68192" lon="1.78078">
        <ele>1372</ele>
        <time>2020-07-04T21:51:29+02:00</time>
      </trkpt>
      <trkpt lat="42.68229" lon="1.78075">
        <ele>1368</ele>
        <time>2020-07-04T21:51:34+02:00</time>
      </trkpt>
      <trkpt lat="42.6826" lon="1.78057">
        <ele>1369</ele>
        <time>2020-07-04T21:51:39+02:00</time>
      </trkpt>
      <trkpt lat="42.68303" lon="1.78083">
        <ele>1362</ele>
        <time>2020-07-04T21:51:44+02:00</time>
      </trkpt>
      <trkpt lat="42.68322" lon="1.78088">
        <ele>1362</ele>
        <time>2020-07-04T21:51:49+02:00</time>
      </trkpt>
      <trkpt lat="42.68365" lon="1.78113">
        <ele>1359</ele>
        <time>2020-07-04T21:51:54+02:00</time>
      </trkpt>
      <trkpt lat="42.68398" lon="1.78128">
        <ele>1356</ele>
        <time>2020-07-04T21:51:59+02:00</time>
      </trkpt>
      <trkpt lat="42.6846" lon="1.78156">
        <ele>1348</ele>
        <time>2020-07-04T21:52:04+02:00</time>
      </trkpt>
      <trkpt lat="42.68505" lon="1.78187">
        <ele>1343</ele>
        <time>2020-07-04T21:52:09+02:00</time>
      </trkpt>
      <trkpt lat="42.68513" lon="1.78203">
        <ele>1341</ele>
        <time>2020-07-04T21:52:14+02:00</time>
      </trkpt>
      <trkpt lat="42.68526" lon="1.78217">
        <ele>1338</ele>
        <time>2020-07-04T21:52:19+02:00</time>
      </trkpt>
      <trkpt lat="42.68534" lon="1.78217">
        <ele>1336</ele>
        <time>2020-07-04T21:52:24+02:00</time>
      </trkpt>
      <trkpt lat="42.68568" lon="1.78208">
        <ele>1330</ele>
        <time>2020-07-04T21:52:29+02:00</time>
      </trkpt>
      <trkpt lat="42.68572" lon="1.78217">
        <ele>1329</ele>
        <time>2020-07-04T21:52:34+02:00</time>
      </trkpt>
      <trkpt lat="42.68587" lon="1.78239">
        <ele>1324</ele>
        <time>2020-07-04T21:52:39+02:00</time>
      </trkpt>
      <trkpt lat="42.68591" lon="1.78253">
        <ele>1322</ele>
        <time>2020-07-04T21:52:44+02:00</time>
      </trkpt>
      <trkpt lat="42.68621" lon="1.78245">
        <ele>1315</ele>
        <time>2020-07-04T21:52:49+02:00</time>
      </trkpt>
      <trkpt lat="42.68641" lon="1.78254">
        <ele>1310</ele>
        <time>2020-07-04T21:52:54+02:00</time>
      </trkpt>
      <trkpt lat="42.68671" lon="1.78253">
        <ele>1303</ele>
        <time>2020-07-04T21:52:59+02:00</time>
      </trkpt>
      <trkpt lat="42.6869" lon="1.78242">
        <ele>1303</ele>
        <time>2020-07-04T21:53:04+02:00</time>
      </trkpt>
      <trkpt lat="42.68736" lon="1.78228">
        <ele>1305</ele>
        <time>2020-07-04T21:53:09+02:00</time>
      </trkpt>
      <trkpt lat="42.68752" lon="1.78238">
        <ele>1303</ele>
        <time>2020-07-04T21:53:14+02:00</time>
      </trkpt>
      <trkpt lat="42.68788" lon="1.78238">
        <ele>1303</ele>
        <time>2020-07-04T21:53:19+02:00</time>
      </trkpt>
      <trkpt lat="42.68801" lon="1.78225">
        <ele>1306</ele>
        <time>2020-07-04T21:53:24+02:00</time>
      </trkpt>
      <trkpt lat="42.68828" lon="1.78219">
        <ele>1308</ele>
        <time>2020-07-04T21:53:29+02:00</time>
      </trkpt>
      <trkpt lat="42.68837" lon="1.78223">
        <ele>1307</ele>
        <time>2020-07-04T21:53:34+02:00</time>
      </trkpt>
      <trkpt lat="42.68872" lon="1.78223">
        <ele>1302</ele>
        <time>2020-07-04T21:53:39+02:00</time>
      </trkpt>
      <trkpt lat="42.68889" lon="1.78217">
        <ele>1301</ele>
        <time>2020-07-04T21:53:44+02:00</time>
      </trkpt>
      <trkpt lat="42.68912" lon="1.78223">
        <ele>1297</ele>
        <time>2020-07-04T21:53:49+02:00</time>
      </trkpt>
      <trkpt lat="42.68937" lon="1.78216">
        <ele>1296</ele>
        <time>2020-07-04T21:53:54+02:00</time>
      </trkpt>
      <trkpt lat="42.68944" lon="1.7821">
        <ele>1297</ele>
        <time>2020-07-04T21:53:59+02:00</time>
      </trkpt>
      <trkpt lat="42.68977" lon="1.78215">
        <ele>1293</ele>
        <time>2020-07-04T21:54:04+02:00</time>
      </trkpt>
      <trkpt lat="42.69009" lon="1.78231">
        <ele>1287</ele>
        <time>2020-07-04T21:54:09+02:00</time>
      </trkpt>
      <trkpt lat="42.69038" lon="1.78242">
        <ele>1285</ele>
        <time>2020-07-04T21:54:14+02:00</time>
      </trkpt>
      <trkpt lat="42.69089" lon="1.78277">
        <ele>1280</ele>
        <time>2020-07-04T21:54:19+02:00</time>
      </trkpt>
      <trkpt lat="42.69151" lon="1.78327">
        <ele>1275</ele>
        <time>2020-07-04T21:54:24+02:00</time>
      </trkpt>
      <trkpt lat="42.69158" lon="1.7833">
        <ele>1275</ele>
        <time>2020-07-04T21:54:29+02:00</time>
      </trkpt>
      <trkpt lat="42.69192" lon="1.78336">
        <ele>1278</ele>
        <time>2020-07-04T21:54:34+02:00</time>
      </trkpt>
      <trkpt lat="42.69203" lon="1.78346">
        <ele>1278</ele>
        <time>2020-07-04T21:54:39+02:00</time>
      </trkpt>
      <trkpt lat="42.69237" lon="1.78395">
        <ele>1273</ele>
        <time>2020-07-04T21:54:44+02:00</time>
      </trkpt>
      <trkpt lat="42.69266" lon="1.78408">
        <ele>1273</ele>
        <time>2020-07-04T21:54:49+02:00</time>
      </trkpt>
      <trkpt lat="42.69283" lon="1.78444">
        <ele>1272</ele>
        <time>2020-07-04T21:54:54+02:00</time>
      </trkpt>
      <trkpt lat="42.69315" lon="1.78461">
        <ele>1273</ele>
        <time>2020-07-04T21:54:59+02:00</time>
      </trkpt>
      <trkpt lat="42.6935" lon="1.7849">
        <ele>1270</ele>
        <time>2020-07-04T21:55:04+02:00</time>
      </trkpt>
      <trkpt lat="42.69368" lon="1.78497">
        <ele>1270</ele>
        <time>2020-07-04T21:55:09+02:00</time>
      </trkpt>
      <trkpt lat="42.69419" lon="1.78533">
        <ele>1268</ele>
        <time>2020-07-04T21:55:14+02:00</time>
      </trkpt>
      <trkpt lat="42.69453" lon="1.78555">
        <ele>1269</ele>
        <time>2020-07-04T21:55:19+02:00</time>
      </trkpt>
      <trkpt lat="42.69482" lon="1.78583">
        <ele>1266</ele>
        <time>2020-07-04T21:55:24+02:00</time>
      </trkpt>
      <trkpt lat="42.69507" lon="1.78598">
        <ele>1267</ele>
        <time>2020-07-04T21:55:29+02:00</time>
      </trkpt>
      <trkpt lat="42.69512" lon="1.78612">
        <ele>1267</ele>
        <time>2020-07-04T21:55:34+02:00</time>
      </trkpt>
      <trkpt lat="42.69537" lon="1.7864">
        <ele>1264</ele>
        <time>2020-07-04T21:55:39+02:00</time>
      </trkpt>
      <trkpt lat="42.69581" lon="1.78648">
        <ele>1263</ele>
        <time>2020-07-04T21:55:44+02:00</time>
      </trkpt>
      <trkpt lat="42.69601" lon="1.78648">
        <ele>1267</ele>
        <time>2020-07-04T21:55:49+02:00</time>
      </trkpt>
      <trkpt lat="42.6962" lon="1.78671">
        <ele>1262</ele>
        <time>2020-07-04T21:55:54+02:00</time>
      </trkpt>
      <trkpt lat="42.69664" lon="1.78686">
        <ele>1265</ele>
        <time>2020-07-04T21:55:59+02:00</time>
      </trkpt>
      <trkpt lat="42.69721" lon="1.78726">
        <ele>1263</ele>
        <time>2020-07-04T21:56:04+02:00</time>
      </trkpt>
      <trkpt lat="42.69735" lon="1.78722">
        <ele>1266</ele>
        <time>2020-07-04T21:56:09+02:00</time>
      </trkpt>
      <trkpt lat="42.69748" lon="1.78737">
        <ele>1260</ele>
        <time>2020-07-04T21:56:14+02:00</time>
      </trkpt>
      <trkpt lat="42.69755" lon="1.78763">
        <ele>1253</ele>
        <time>2020-07-04T21:56:19+02:00</time>
      </trkpt>
      <trkpt lat="42.69766" lon="1.78765">
        <ele>1253</ele>
        <time>2020-07-04T21:56:24+02:00</time>
      </trkpt>
      <trkpt lat="42.69788" lon="1.7878">
        <ele>1252</ele>
        <time>2020-07-04T21:56:29+02:00</time>
      </trkpt>
      <trkpt lat="42.6984" lon="1.78788">
        <ele>1250</ele>
        <time>2020-07-04T21:56:34+02:00</time>
      </trkpt>
      <trkpt lat="42.69856" lon="1.78799">
        <ele>1248</ele>
        <time>2020-07-04T21:56:39+02:00</time>
      </trkpt>
      <trkpt lat="42.69874" lon="1.78795">
        <ele>1248</ele>
        <time>2020-07-04T21:56:44+02:00</time>
      </trkpt>
      <trkpt lat="42.69907" lon="1.78802">
        <ele>1246</ele>
        <time>2020-07-04T21:56:49+02:00</time>
      </trkpt>
      <trkpt lat="42.69915" lon="1.7881">
        <ele>1244</ele>
        <time>2020-07-04T21:56:54+02:00</time>
      </trkpt>
      <trkpt lat="42.69934" lon="1.78804">
        <ele>1244</ele>
        <time>2020-07-04T21:56:59+02:00</time>
      </trkpt>
      <trkpt lat="42.69948" lon="1.78813">
        <ele>1241</ele>
        <time>2020-07-04T21:57:04+02:00</time>
      </trkpt>
      <trkpt lat="42.69971" lon="1.78803">
        <ele>1242</ele>
        <time>2020-07-04T21:57:09+02:00</time>
      </trkpt>
      <trkpt lat="42.69995" lon="1.78824">
        <ele>1233</ele>
        <time>2020-07-04T21:57:14+02:00</time>
      </trkpt>
      <trkpt lat="42.70016" lon="1.78817">
        <ele>1234</ele>
        <time>2020-07-04T21:57:19+02:00</time>
      </trkpt>
      <trkpt lat="42.70035" lon="1.7883">
        <ele>1227</ele>
        <time>2020-07-04T21:57:24+02:00</time>
      </trkpt>
      <trkpt lat="42.70064" lon="1.78855">
        <ele>1220</ele>
        <time>2020-07-04T21:57:29+02:00</time>
      </trkpt>
      <trkpt lat="42.70102" lon="1.7886">
        <ele>1217</ele>
        <time>2020-07-04T21:57:34+02:00</time>
      </trkpt>
      <trkpt lat="42.70113" lon="1.78873">
        <ele>1214</ele>
        <time>2020-07-04T21:57:39+02:00</time>
      </trkpt>
      <trkpt lat="42.70165" lon="1.78894">
        <ele>1207</ele>
        <time>2020-07-04T21:57:44+02:00</time>
      </trkpt>
      <trkpt lat="42.70176" lon="1.78905">
        <ele>1203</ele>
        <time>2020-07-04T21:57:49+02:00</time>
      </trkpt>
      <trkpt lat="42.70195" lon="1.78906">
        <ele>1201</ele>
        <time>2020-07-04T21:57:54+02:00</time>
      </trkpt>
      <trkpt lat="42.70224" lon="1.78901">
        <ele>1200</ele>
        <time>2020-07-04T21:57:59+02:00</time>
      </trkpt>
      <trkpt lat="42.70242" lon="1.7891">
        <ele>1196</ele>
        <time>2020-07-04T21:58:04+02:00</time>
      </trkpt>
      <trkpt lat="42.70257" lon="1.78907">
        <ele>1196</ele>
        <time>2020-07-04T21:58:09+02:00</time>
      </trkpt>
      <trkpt lat="42.70284" lon="1.78913">
        <ele>1194</ele>
        <time>2020-07-04T21:58:14+02:00</time>
      </trkpt>
      <trkpt lat="42.70297" lon="1.78919">
        <ele>1193</ele>
        <time>2020-07-04T21:58:19+02:00</time>
      </trkpt>
      <trkpt lat="42.70325" lon="1.78918">
        <ele>1192</ele>
        <time>2020-07-04T21:58:24+02:00</time>
      </trkpt>
      <trkpt lat="42.7034" lon="1.78913">
        <ele>1193</ele>
        <time>2020-07-04T21:58:29+02:00</time>
      </trkpt>
      <trkpt lat="42.70356" lon="1.78907">
        <ele>1194</ele>
        <time>2020-07-04T21:58:34+02:00</time>
      </trkpt>
      <trkpt lat="42.70377" lon="1.78906">
        <ele>1193</ele>
        <time>2020-07-04T21:58:39+02:00</time>
      </trkpt>
      <trkpt lat="42.70385" lon="1.78914">
        <ele>1189</ele>
        <time>2020-07-04T21:58:44+02:00</time>
      </trkpt>
      <trkpt lat="42.70403" lon="1.78914">
        <ele>1188</ele>
        <time>2020-07-04T21:58:49+02:00</time>
      </trkpt>
      <trkpt lat="42.70432" lon="1.78925">
        <ele>1185</ele>
        <time>2020-07-04T21:58:54+02:00</time>
      </trkpt>
      <trkpt lat="42.70444" lon="1.78938">
        <ele>1183</ele>
        <time>2020-07-04T21:58:59+02:00</time>
      </trkpt>
      <trkpt lat="42.70462" lon="1.7895">
        <ele>1180</ele>
        <time>2020-07-04T21:59:04+02:00</time>
      </trkpt>
      <trkpt lat="42.70503" lon="1.78971">
        <ele>1174</ele>
        <time>2020-07-04T21:59:09+02:00</time>
      </trkpt>
      <trkpt lat="42.70523" lon="1.78978">
        <ele>1173</ele>
        <time>2020-07-04T21:59:14+02:00</time>
      </trkpt>
      <trkpt lat="42.70537" lon="1.78976">
        <ele>1173</ele>
        <time>2020-07-04T21:59:19+02:00</time>
      </trkpt>
      <trkpt lat="42.70567" lon="1.79006">
        <ele>1166</ele>
        <time>2020-07-04T21:59:24+02:00</time>
      </trkpt>
      <trkpt lat="42.7059" lon="1.79017">
        <ele>1165</ele>
        <time>2020-07-04T21:59:29+02:00</time>
      </trkpt>
      <trkpt lat="42.70597" lon="1.79023">
        <ele>1165</ele>
        <time>2020-07-04T21:59:34+02:00</time>
      </trkpt>
      <trkpt lat="42.70622" lon="1.79033">
        <ele>1165</ele>
        <time>2020-07-04T21:59:39+02:00</time>
      </trkpt>
      <trkpt lat="42.70647" lon="1.79043">
        <ele>1165</ele>
        <time>2020-07-04T21:59:44+02:00</time>
      </trkpt>
      <trkpt lat="42.70656" lon="1.7907">
        <ele>1161</ele>
        <time>2020-07-04T21:59:49+02:00</time>
      </trkpt>
      <trkpt lat="42.70675" lon="1.79093">
        <ele>1160</ele>
        <time>2020-07-04T21:59:54+02:00</time>
      </trkpt>
      <trkpt lat="42.70697" lon="1.79122">
        <ele>1162</ele>
        <time>2020-07-04T21:59:59+02:00</time>
      </trkpt>
      <trkpt lat="42.70717" lon="1.7917">
        <ele>1159</ele>
        <time>2020-07-04T22:00:04+02:00</time>
      </trkpt>
      <trkpt lat="42.7072" lon="1.79184">
        <ele>1158</ele>
        <time>2020-07-04T22:00:09+02:00</time>
      </trkpt>
      <trkpt lat="42.70731" lon="1.79217">
        <ele>1154</ele>
        <time>2020-07-04T22:00:14+02:00</time>
      </trkpt>
      <trkpt lat="42.70744" lon="1.79266">
        <ele>1147</ele>
        <time>2020-07-04T22:00:19+02:00</time>
      </trkpt>
      <trkpt lat="42.70768" lon="1.79298">
        <ele>1147</ele>
        <time>2020-07-04T22:00:24+02:00</time>
      </trkpt>
      <trkpt lat="42.70796" lon="1.7936">
        <ele>1143</ele>
        <time>2020-07-04T22:00:29+02:00</time>
      </trkpt>
      <trkpt lat="42.70818" lon="1.79409">
        <ele>1141</ele>
        <time>2020-07-04T22:00:34+02:00</time>
      </trkpt>
      <trkpt lat="42.70806" lon="1.79527">
        <ele>1133</ele>
        <time>2020-07-04T22:00:39+02:00</time>
      </trkpt>
      <trkpt lat="42.70812" lon="1.79572">
        <ele>1132</ele>
        <time>2020-07-04T22:00:44+02:00</time>
      </trkpt>
      <trkpt lat="42.70798" lon="1.7969">
        <ele>1124</ele>
        <time>2020-07-04T22:00:49+02:00</time>
      </trkpt>
      <trkpt lat="42.70768" lon="1.79759">
        <ele>1116</ele>
        <time>2020-07-04T22:00:54+02:00</time>
      </trkpt>
      <trkpt lat="42.7078" lon="1.79819">
        <ele>1115</ele>
        <time>2020-07-04T22:00:59+02:00</time>
      </trkpt>
      <trkpt lat="42.70776" lon="1.79864">
        <ele>1113</ele>
        <time>2020-07-04T22:01:04+02:00</time>
      </trkpt>
      <trkpt lat="42.70761" lon="1.79924">
        <ele>1110</ele>
        <time>2020-07-04T22:01:09+02:00</time>
      </trkpt>
      <trkpt lat="42.70758" lon="1.79959">
        <ele>1108</ele>
        <time>2020-07-04T22:01:14+02:00</time>
      </trkpt>
      <trkpt lat="42.70741" lon="1.80092">
        <ele>1099</ele>
        <time>2020-07-04T22:01:19+02:00</time>
      </trkpt>
      <trkpt lat="42.70742" lon="1.80171">
        <ele>1099</ele>
        <time>2020-07-04T22:01:24+02:00</time>
      </trkpt>
      <trkpt lat="42.70746" lon="1.80276">
        <ele>1094</ele>
        <time>2020-07-04T22:01:29+02:00</time>
      </trkpt>
      <trkpt lat="42.70744" lon="1.80308">
        <ele>1094</ele>
        <time>2020-07-04T22:01:34+02:00</time>
      </trkpt>
      <trkpt lat="42.70754" lon="1.80351">
        <ele>1093</ele>
        <time>2020-07-04T22:01:39+02:00</time>
      </trkpt>
      <trkpt lat="42.70749" lon="1.80403">
        <ele>1091</ele>
        <time>2020-07-04T22:01:44+02:00</time>
      </trkpt>
      <trkpt lat="42.70766" lon="1.80459">
        <ele>1092</ele>
        <time>2020-07-04T22:01:49+02:00</time>
      </trkpt>
      <trkpt lat="42.70802" lon="1.80566">
        <ele>1094</ele>
        <time>2020-07-04T22:01:54+02:00</time>
      </trkpt>
    </trkseg>
  </trk>
</gpx>